Time;durP1;ratioP1;P1;durP2;ratioP2;P2;SDS_P1;SDS_P2;PMS_P1;PMS_P2;Temp;Humidity;BMP_temperature;BMP_pressure;BME280_temperature;BME280_humidity;BME280_pressure;Samples;Min_cycle;Max_cycle;Signal;HPM_P1;HPM_P2
2022/04/28 00:01:56;;;;;;;11.70;2.80;;;7.50;1.00;;;;;;5017570;28;20088;-26
2022/04/28 00:04:22;;;;;;;13.35;3.10;;;7.50;1.00;;;;;;5032084;28;20045;-26
2022/04/28 00:06:48;;;;;;;11.38;2.97;;;7.50;1.00;;;;;;5018898;28;20507;-26
2022/04/28 00:09:13;;;;;;;6.80;2.00;;;7.50;1.00;;;;;;5013581;28;20050;-26
2022/04/28 00:11:39;;;;;;;8.55;2.25;;;7.50;1.00;;;;;;5015465;28;20041;-26
2022/04/28 00:14:07;;;;;;;7.57;1.70;;;7.40;1.00;;;;;;5017345;28;20566;-26
2022/04/28 00:16:37;;;;;;;8.88;2.05;;;7.50;1.00;;;;;;5013203;28;20050;-26
2022/04/28 00:19:03;;;;;;;9.13;2.13;;;7.50;1.00;;;;;;5014702;28;20046;-26
2022/04/28 00:21:29;;;;;;;11.27;1.80;;;7.70;1.00;;;;;;5015401;28;20116;-26
2022/04/28 00:23:55;;;;;;;5.47;1.98;;;7.40;1.00;;;;;;5021608;28;20121;-26
2022/04/28 00:26:20;;;;;;;9.50;2.50;;;7.40;1.00;;;;;;5034058;28;20107;-26
2022/04/28 00:28:47;;;;;;;9.07;2.20;;;7.30;1.00;;;;;;5024450;28;20092;-26
2022/04/28 00:31:13;;;;;;;6.93;2.15;;;7.40;1.00;;;;;;5014179;28;20049;-26
2022/04/28 00:33:41;;;;;;;13.20;2.15;;;7.30;1.00;;;;;;5015206;28;20378;-26
2022/04/28 00:36:08;;;;;;;7.90;2.30;;;7.30;1.00;;;;;;5022433;28;20412;-26
2022/04/28 00:38:33;;;;;;;11.38;3.10;;;7.30;1.00;;;;;;5023855;28;20053;-26
2022/04/28 00:40:59;;;;;;;12.45;2.88;;;7.30;1.00;;;;;;5014100;28;20389;-26
2022/04/28 00:43:28;;;;;;;6.40;2.53;;;7.30;1.00;;;;;;5012185;28;20057;-26
2022/04/28 00:45:55;;;;;;;9.95;2.45;;;7.20;1.00;;;;;;5013049;28;20088;-26
2022/04/28 00:51:08;;;;;;;9.40;2.95;;;7.20;1.00;;;;;;5027382;28;20050;-27
2022/04/28 00:53:46;;;;;;;12.10;3.22;;;7.10;1.00;;;;;;5029571;28;20103;-26
2022/04/28 00:56:13;;;;;;;10.70;3.00;;;7.00;1.00;;;;;;5034542;28;20092;-26
2022/04/28 00:58:39;;;;;;;11.73;3.05;;;7.20;1.00;;;;;;5032505;28;20131;-26
2022/04/28 01:01:05;;;;;;;15.85;3.38;;;7.10;1.00;;;;;;5031972;28;20049;-26
2022/04/28 01:03:31;;;;;;;11.93;3.67;;;7.00;1.00;;;;;;5030738;28;20041;-26
2022/04/28 01:05:58;;;;;;;10.57;4.60;;;7.10;1.00;;;;;;5015474;28;20046;-26
2022/04/28 01:08:24;;;;;;;7.82;3.90;;;7.00;1.00;;;;;;5012795;28;20057;-26
2022/04/28 01:10:52;;;;;;;7.18;3.72;;;7.00;1.00;;;;;;5014255;28;20042;-26
2022/04/28 01:13:18;;;;;;;9.32;3.80;;;7.00;1.00;;;;;;5014464;28;20038;-26
2022/04/28 01:15:45;;;;;;;9.38;3.72;;;6.90;1.00;;;;;;5030315;28;20110;-26
2022/04/28 01:18:11;;;;;;;10.95;4.15;;;6.90;1.00;;;;;;5033413;28;20396;-26
2022/04/28 01:20:36;;;;;;;9.65;3.28;;;6.90;1.00;;;;;;5033370;28;20037;-26
2022/04/28 01:23:06;;;;;;;14.57;4.22;;;6.80;1.00;;;;;;5032065;28;20042;-26
2022/04/28 01:25:32;;;;;;;12.20;2.63;;;7.00;1.00;;;;;;5031337;28;20038;-26
2022/04/28 01:27:58;;;;;;;10.05;2.72;;;6.90;1.00;;;;;;5030453;28;20060;-26
2022/04/28 01:30:25;;;;;;;8.15;2.83;;;7.00;1.00;;;;;;5021694;28;20423;-26
2022/04/28 01:32:52;;;;;;;10.63;3.10;;;7.10;1.00;;;;;;5012586;28;20481;-26
2022/04/28 01:35:18;;;;;;;8.73;2.47;;;7.00;1.00;;;;;;4997305;28;20037;-26
2022/04/28 01:37:43;;;;;;;7.07;2.67;;;7.10;1.00;;;;;;5016834;28;20103;-27
2022/04/28 01:40:11;;;;;;;8.70;3.78;;;7.10;1.00;;;;;;5013067;28;20453;-26
2022/04/28 01:42:41;;;;;;;12.73;3.40;;;7.10;1.00;;;;;;5013561;28;20104;-26
2022/04/28 01:45:09;;;;;;;10.30;3.10;;;7.30;1.00;;;;;;5028228;28;20053;-26
2022/04/28 01:47:35;;;;;;;10.27;2.70;;;7.10;1.00;;;;;;5014479;28;20104;-26
2022/04/28 01:50:02;;;;;;;11.30;2.97;;;7.10;1.00;;;;;;5016032;28;20053;-26
2022/04/28 01:55:12;;;;;;;8.30;3.58;;;7.10;1.00;;;;;;5016525;28;20128;-25
2022/04/28 01:57:39;;;;;;;9.98;3.55;;;7.00;1.00;;;;;;5018123;28;20060;-26
2022/04/28 02:00:07;;;;;;;6.82;3.17;;;7.00;1.00;;;;;;5015697;28;20501;-26
2022/04/28 02:02:34;;;;;;;11.30;3.45;;;7.10;1.00;;;;;;5020328;28;20049;-26
2022/04/28 02:05:01;;;;;;;8.88;3.58;;;7.00;1.00;;;;;;5019317;28;20119;-26
2022/04/28 02:07:28;;;;;;;14.45;4.13;;;7.10;1.00;;;;;;5032956;28;20050;-26
2022/04/28 02:09:55;;;;;;;9.80;3.65;;;7.00;2.20;;;;;;5031621;28;20053;-26
2022/04/28 02:12:21;;;;;;;8.60;3.70;;;7.00;11.90;;;;;;5035422;28;20045;-26
2022/04/28 02:14:47;;;;;;;9.65;3.65;;;6.80;26.70;;;;;;5037068;28;20044;-26
2022/04/28 02:17:20;;;;;;;7.47;3.58;;;6.90;42.20;;;;;;5034727;28;20500;-26
2022/04/28 02:19:45;;;;;;;10.10;3.85;;;6.80;54.20;;;;;;5016594;28;20120;-26
2022/04/28 02:22:11;;;;;;;9.32;3.60;;;6.80;66.40;;;;;;5035237;28;20176;-26
2022/04/28 02:24:37;;;;;;;13.13;3.70;;;6.80;76.90;;;;;;5036316;28;20488;-26
2022/04/28 02:27:03;;;;;;;9.05;3.40;;;6.80;84.20;;;;;;5036252;28;20056;-26
2022/04/28 02:29:29;;;;;;;8.38;3.40;;;6.80;92.20;;;;;;5016637;28;20056;-26
2022/04/28 02:31:55;;;;;;;10.32;4.13;;;6.80;93.40;;;;;;5015929;28;20129;-26
2022/04/28 02:34:21;;;;;;;11.40;3.45;;;6.70;94.40;;;;;;4983441;28;20104;-26
2022/04/28 02:36:47;;;;;;;8.27;3.30;;;6.60;96.10;;;;;;5016342;28;20046;-26
2022/04/28 02:39:14;;;;;;;9.43;3.80;;;6.70;97.70;;;;;;5018816;28;20493;-26
2022/04/28 02:41:41;;;;;;;13.52;3.88;;;6.70;98.40;;;;;;5028355;28;20099;-26
2022/04/28 02:44:06;;;;;;;12.30;4.43;;;6.70;98.30;;;;;;5016120;28;20100;-26
2022/04/28 02:46:33;;;;;;;7.78;3.63;;;6.70;99.00;;;;;;5015663;28;20084;-26
2022/04/28 02:48:59;;;;;;;12.10;4.00;;;6.80;99.90;;;;;;5017097;28;20056;-26
2022/04/28 02:51:25;;;;;;;12.80;4.10;;;6.70;99.90;;;;;;5016221;28;20049;-26
2022/04/28 02:53:50;;;;;;;14.98;4.50;;;6.70;99.90;;;;;;5017901;28;20050;-26
2022/04/28 02:56:16;;;;;;;12.93;4.32;;;6.70;99.90;;;;;;5015920;28;20046;-26
2022/04/28 02:58:42;;;;;;;10.25;3.70;;;6.70;99.90;;;;;;5025689;28;20046;-26
2022/04/28 03:01:08;;;;;;;7.47;3.85;;;6.70;99.90;;;;;;5031652;28;20049;-26
2022/04/28 03:03:34;;;;;;;12.05;4.38;;;6.80;99.90;;;;;;5035805;28;20404;-26
2022/04/28 03:11:30;;;;;;;7.63;3.95;;;6.80;99.90;;;;;;5016869;28;20057;-26
2022/04/28 03:13:56;;;;;;;11.75;4.53;;;6.80;99.90;;;;;;5015657;28;20470;-26
2022/04/28 03:16:22;;;;;;;11.00;4.88;;;6.80;99.90;;;;;;5017451;28;20148;-26
2022/04/28 03:18:48;;;;;;;8.32;2.85;;;6.70;99.90;;;;;;5015571;28;20133;-26
2022/04/28 03:21:14;;;;;;;14.63;4.30;;;6.80;99.90;;;;;;5016428;28;20049;-26
2022/04/28 03:23:41;;;;;;;10.55;3.10;;;6.80;99.90;;;;;;5025953;28;20050;-26
2022/04/28 03:26:07;;;;;;;10.23;3.92;;;7.10;99.90;;;;;;5034425;28;20365;-26
2022/04/28 03:28:35;;;;;;;18.80;4.57;;;6.90;99.90;;;;;;5035348;28;20056;-26
2022/04/28 03:31:05;;;;;;;11.82;4.13;;;6.90;99.90;;;;;;5031052;28;20049;-26
2022/04/28 03:33:31;;;;;;;11.73;4.20;;;7.00;99.90;;;;;;5024589;28;20045;-26
2022/04/28 03:35:57;;;;;;;12.23;4.53;;;6.80;99.90;;;;;;5034921;28;20041;-27
2022/04/28 03:38:23;;;;;;;13.30;4.30;;;6.80;99.90;;;;;;5034933;28;20064;-26
2022/04/28 03:40:49;;;;;;;10.60;4.55;;;6.70;99.90;;;;;;5034884;28;20041;-26
2022/04/28 03:43:15;;;;;;;12.95;4.22;;;6.70;99.90;;;;;;5017557;28;20157;-26
2022/04/28 03:45:41;;;;;;;9.00;4.30;;;6.60;99.90;;;;;;5015535;28;20046;-26
2022/04/28 03:48:10;;;;;;;10.95;4.47;;;6.60;99.90;;;;;;5015222;28;20432;-26
2022/04/28 03:50:37;;;;;;;10.35;4.03;;;6.60;99.90;;;;;;5013715;28;20050;-26
2022/04/28 03:53:03;;;;;;;7.78;4.22;;;6.60;99.90;;;;;;5019146;28;20068;-26
2022/04/28 03:55:29;;;;;;;8.63;4.60;;;6.60;99.90;;;;;;5034300;28;20161;-26
2022/04/28 03:57:54;;;;;;;10.45;4.45;;;6.50;99.90;;;;;;5031737;28;20411;-26
2022/04/28 04:00:21;;;;;;;9.40;4.78;;;6.40;99.90;;;;;;5034322;28;20045;-26
2022/04/28 04:02:48;;;;;;;11.93;4.75;;;6.40;99.90;;;;;;5029813;28;20048;-26
2022/04/28 04:05:13;;;;;;;8.60;5.05;;;6.30;99.90;;;;;;4997040;28;20097;-26
2022/04/28 04:07:39;;;;;;;9.45;5.68;;;6.20;99.90;;;;;;5014592;28;20085;-26
2022/04/28 04:10:10;;;;;;;11.90;4.93;;;6.10;99.90;;;;;;5014497;28;20042;-27
2022/04/28 04:12:36;;;;;;;9.77;5.45;;;6.20;99.90;;;;;;5014506;28;20089;-26
2022/04/28 04:15:03;;;;;;;14.70;5.65;;;6.20;99.90;;;;;;5014731;28;20050;-26
2022/04/28 04:17:29;;;;;;;9.23;5.03;;;6.20;99.90;;;;;;5013993;28;20489;-26
2022/04/28 04:19:55;;;;;;;12.35;5.35;;;6.30;99.90;;;;;;5013324;28;20179;-26
2022/04/28 04:22:21;;;;;;;13.40;5.97;;;6.30;99.90;;;;;;5014038;28;20124;-26
2022/04/28 04:24:46;;;;;;;11.00;5.00;;;6.40;99.90;;;;;;5030320;28;20109;-26
2022/04/28 04:27:15;;;;;;;12.43;4.78;;;6.50;99.90;;;;;;5024124;28;20045;-26
2022/04/28 04:29:41;;;;;;;13.50;5.50;;;6.50;99.90;;;;;;5013071;28;20037;-26
2022/04/28 04:32:18;;;;;;;12.80;4.82;;;6.70;99.90;;;;;;5014197;28;20090;-27
2022/04/28 04:34:50;;;;;;;15.40;5.70;;;6.60;99.90;;;;;;5019186;28;20045;-26
2022/04/28 04:37:15;;;;;;;11.95;5.70;;;6.80;99.90;;;;;;5033284;28;20045;-26
2022/04/28 04:39:41;;;;;;;9.65;4.70;;;7.10;99.90;;;;;;5028955;28;20052;-26
2022/04/28 04:42:08;;;;;;;16.85;5.05;;;7.00;99.90;;;;;;5013792;28;20128;-26
2022/04/28 04:44:34;;;;;;;13.68;4.63;;;7.20;1.00;;;;;;5015035;28;20068;-26
2022/04/28 04:47:00;;;;;;;12.32;4.50;;;7.30;1.00;;;;;;5014049;28;20132;-26
2022/04/28 04:49:26;;;;;;;21.05;5.60;;;7.50;1.00;;;;;;5013222;28;20125;-26
2022/04/28 04:51:51;;;;;;;14.65;4.93;;;7.60;1.00;;;;;;5013852;28;20045;-26
2022/04/28 04:54:17;;;;;;;14.15;4.30;;;7.70;1.00;;;;;;5013598;28;20053;-26
2022/04/28 04:56:43;;;;;;;10.75;3.30;;;7.80;1.00;;;;;;4998615;28;20088;-26
2022/04/28 04:59:09;;;;;;;12.38;3.55;;;7.90;1.00;;;;;;5028313;28;20047;-26
2022/04/28 05:01:35;;;;;;;8.25;2.80;;;8.10;1.00;;;;;;5034705;28;20054;-26
2022/04/28 05:04:01;;;;;;;11.07;2.92;;;8.10;1.00;;;;;;5032343;28;20409;-26
2022/04/28 05:06:27;;;;;;;8.70;3.15;;;8.10;1.00;;;;;;5033547;28;20056;-26
2022/04/28 05:08:53;;;;;;;11.23;2.92;;;8.10;1.00;;;;;;5029919;28;20057;-27
2022/04/28 05:11:19;;;;;;;10.40;2.88;;;8.20;1.00;;;;;;5033390;28;20045;-26
2022/04/28 05:13:45;;;;;;;12.32;2.50;;;8.30;99.90;;;;;;5033097;28;20077;-27
2022/04/28 05:16:11;;;;;;;13.30;3.58;;;8.30;99.90;;;;;;5033379;28;20138;-26
2022/04/28 05:18:38;;;;;;;12.75;2.65;;;8.40;99.90;;;;;;5025178;28;20049;-26
2022/04/28 05:21:03;;;;;;;9.05;2.40;;;8.50;99.90;;;;;;5013660;28;20128;-26
2022/04/28 05:23:29;;;;;;;9.07;2.53;;;8.60;99.90;;;;;;5014740;28;20137;-26
2022/04/28 05:25:55;;;;;;;15.52;3.15;;;8.60;99.90;;;;;;5017598;28;20046;-26
2022/04/28 05:28:22;;;;;;;11.00;2.45;;;8.60;99.90;;;;;;5024823;28;20401;-26
2022/04/28 05:30:47;;;;;;;11.98;3.05;;;8.60;99.90;;;;;;5035671;28;20049;-26
2022/04/28 05:33:13;;;;;;;12.63;2.80;;;8.60;99.90;;;;;;5036088;28;20136;-26
2022/04/28 05:35:41;;;;;;;7.95;2.15;;;8.50;99.90;;;;;;5036560;28;20085;-26
2022/04/28 05:38:10;;;;;;;7.57;2.08;;;8.50;99.90;;;;;;5034976;28;20037;-26
2022/04/28 05:40:40;;;;;;;9.45;2.50;;;8.40;99.90;;;;;;5029710;28;20053;-26
2022/04/28 05:45:52;;;;;;;10.65;3.08;;;8.30;99.90;;;;;;5037895;28;20081;-26
2022/04/28 05:48:20;;;;;;;11.27;2.60;;;8.20;99.90;;;;;;5018584;28;20116;-27
2022/04/28 05:50:47;;;;;;;15.57;4.50;;;8.10;99.90;;;;;;5017695;28;20049;-26
2022/04/28 05:53:15;;;;;;;14.68;4.00;;;8.20;99.90;;;;;;5032756;28;20042;-26
2022/04/28 05:55:41;;;;;;;8.65;2.80;;;8.20;99.90;;;;;;5020418;28;20535;-26
2022/04/28 05:58:07;;;;;;;9.55;3.03;;;8.20;99.90;;;;;;5031554;28;20054;-26
2022/04/28 06:00:34;;;;;;;10.52;3.08;;;8.30;99.90;;;;;;5032825;28;20576;-26
2022/04/28 06:03:00;;;;;;;14.85;3.08;;;8.20;99.90;;;;;;5026341;28;20073;-26
2022/04/28 06:05:26;;;;;;;8.10;2.85;;;8.20;99.90;;;;;;5035772;28;20132;-26
2022/04/28 06:07:52;;;;;;;8.77;3.58;;;8.30;99.90;;;;;;5016508;28;20511;-26
2022/04/28 06:10:18;;;;;;;13.13;3.33;;;8.30;99.90;;;;;;5031765;28;20046;-26
2022/04/28 06:12:44;;;;;;;11.27;2.85;;;8.40;99.90;;;;;;5028926;28;20053;-26
2022/04/28 06:15:11;;;;;;;9.93;3.40;;;8.50;99.90;;;;;;5035250;28;20443;-26
2022/04/28 06:17:37;;;;;;;14.13;3.22;;;8.50;99.90;;;;;;5034071;28;20400;-26
2022/04/28 06:20:04;;;;;;;12.75;2.78;;;8.60;99.90;;;;;;5034662;28;20050;-26
2022/04/28 06:22:29;;;;;;;10.25;2.58;;;8.60;99.90;;;;;;5020879;28;20076;-26
2022/04/28 06:24:56;;;;;;;10.65;2.50;;;8.80;99.90;;;;;;5015303;28;20497;-26
2022/04/28 06:27:22;;;;;;;10.70;2.17;;;8.80;99.90;;;;;;5016143;28;20413;-26
2022/04/28 06:29:49;;;;;;;9.15;2.40;;;8.90;99.90;;;;;;5034617;28;20057;-27
2022/04/28 06:32:16;;;;;;;6.95;1.45;;;8.90;99.90;;;;;;5023794;28;20057;-26
2022/04/28 06:34:43;;;;;;;5.90;1.50;;;8.90;99.90;;;;;;5015795;28;20049;-26
2022/04/28 06:37:09;;;;;;;8.85;1.95;;;8.90;99.90;;;;;;5017994;28;20129;-26
2022/04/28 06:39:35;;;;;;;10.40;2.50;;;8.90;99.90;;;;;;5015927;28;20124;-26
2022/04/28 06:42:00;;;;;;;4.97;1.58;;;8.70;99.90;;;;;;5017281;28;20037;-26
2022/04/28 06:44:26;;;;;;;8.02;1.30;;;8.70;99.90;;;;;;5001808;28;20100;-26
2022/04/28 06:46:52;;;;;;;8.15;1.65;;;8.60;99.90;;;;;;5023553;28;20048;-26
2022/04/28 06:49:18;;;;;;;9.38;1.60;;;8.60;99.90;;;;;;5021694;28;20444;-26
2022/04/28 06:51:43;;;;;;;12.73;2.15;;;8.50;99.90;;;;;;5021693;28;20053;-26
2022/04/28 06:54:09;;;;;;;9.48;2.13;;;8.50;99.90;;;;;;5034786;28;20103;-26
2022/04/28 06:56:35;;;;;;;9.38;1.55;;;8.50;99.90;;;;;;5034729;28;20463;-26
2022/04/28 06:59:01;;;;;;;8.45;1.60;;;8.60;99.90;;;;;;5030831;28;20037;-26
2022/04/28 07:01:27;;;;;;;8.05;1.35;;;8.70;99.90;;;;;;5035848;28;20060;-26
2022/04/28 07:03:52;;;;;;;8.73;2.10;;;8.80;99.90;;;;;;5035789;28;20050;-26
2022/04/28 07:06:18;;;;;;;7.00;2.17;;;8.80;99.90;;;;;;5034574;28;20157;-26
2022/04/28 07:08:44;;;;;;;8.18;1.48;;;8.90;99.90;;;;;;5033084;28;20045;-26
2022/04/28 07:11:11;;;;;;;13.57;2.17;;;9.00;99.90;;;;;;5015005;28;20042;-26
2022/04/28 07:13:37;;;;;;;9.75;1.85;;;9.00;99.90;;;;;;5024205;28;20046;-26
2022/04/28 07:16:04;;;;;;;10.10;1.67;;;9.10;99.90;;;;;;5035596;28;20552;-26
2022/04/28 07:18:30;;;;;;;9.52;1.83;;;9.20;99.90;;;;;;5032900;28;20085;-26
2022/04/28 07:20:58;;;;;;;11.57;1.83;;;9.20;99.90;;;;;;5028929;28;20084;-27
2022/04/28 07:23:24;;;;;;;5.43;1.20;;;9.30;99.90;;;;;;5035441;28;20501;-26
2022/04/28 07:25:49;;;;;;;11.23;2.30;;;9.30;99.90;;;;;;5033851;28;20485;-26
2022/04/28 07:28:15;;;;;;;8.10;1.65;;;9.40;99.50;;;;;;5020318;28;20034;-26
2022/04/28 07:30:41;;;;;;;8.10;1.55;;;9.60;99.30;;;;;;5015260;28;20120;-26
2022/04/28 07:33:08;;;;;;;9.85;1.90;;;9.50;76.90;;;;;;5025936;28;20042;-26
2022/04/28 07:35:34;;;;;;;7.68;1.67;;;9.50;68.40;;;;;;5020559;28;20061;-26
2022/04/28 07:38:00;;;;;;;6.00;1.77;;;9.60;79.20;;;;;;5015187;28;20054;-26
2022/04/28 07:40:26;;;;;;;6.75;1.50;;;9.90;92.20;;;;;;5016070;28;20493;-26
2022/04/28 07:42:52;;;;;;;10.75;1.58;;;10.10;5.60;;;;;;5033268;28;20114;-26
2022/04/28 07:45:19;;;;;;;7.55;2.30;;;10.20;34.80;;;;;;5033514;28;20041;-26
2022/04/28 07:47:44;;;;;;;9.38;1.60;;;10.20;9.30;;;;;;5030490;28;20404;-26
2022/04/28 07:50:10;;;;;;;7.30;1.15;;;10.40;1.00;;;;;;5031254;28;20072;-27
2022/04/28 07:52:38;;;;;;;7.03;1.88;;;10.70;8.20;;;;;;5033789;28;20080;-26
2022/04/28 07:55:05;;;;;;;12.45;1.85;;;10.80;1.00;;;;;;5029354;28;20123;-26
2022/04/28 07:57:31;;;;;;;8.57;1.90;;;10.90;1.00;;;;;;5019156;28;20156;-26
2022/04/28 07:59:57;;;;;;;11.63;1.88;;;11.00;1.00;;;;;;5015158;28;20493;-26
2022/04/28 08:02:23;;;;;;;6.80;1.63;;;11.00;1.00;;;;;;5015185;28;20053;-26
2022/04/28 08:04:49;;;;;;;13.00;1.75;;;11.20;1.00;;;;;;5017505;28;20088;-26
2022/04/28 08:07:15;;;;;;;11.05;1.58;;;11.10;1.00;;;;;;5014371;28;20481;-26
2022/04/28 08:09:41;;;;;;;8.38;1.77;;;11.20;1.00;;;;;;5022311;28;20041;-26
2022/04/28 08:12:07;;;;;;;8.77;1.40;;;11.30;1.00;;;;;;5031066;28;20041;-26
2022/04/28 08:14:33;;;;;;;9.35;1.98;;;11.40;1.00;;;;;;5013286;28;20054;-26
2022/04/28 08:16:59;;;;;;;10.40;1.23;;;11.40;1.00;;;;;;5015155;28;20041;-26
2022/04/28 08:19:25;;;;;;;9.02;2.25;;;11.50;1.00;;;;;;5034109;28;20049;-26
2022/04/28 08:21:52;;;;;;;10.88;3.15;;;11.40;1.00;;;;;;5031194;28;20050;-27
2022/04/28 08:24:18;;;;;;;5.40;1.25;;;11.50;1.00;;;;;;5015195;28;20089;-26
2022/04/28 08:26:43;;;;;;;6.95;1.58;;;11.60;1.00;;;;;;5013323;28;20060;-27
2022/04/28 08:29:09;;;;;;;9.30;1.40;;;11.60;1.00;;;;;;5014550;28;20128;-26
2022/04/28 08:31:43;;;;;;;4.88;1.05;;;11.70;1.00;;;;;;5013641;28;20042;-26
2022/04/28 08:34:10;;;;;;;9.57;2.08;;;11.70;1.00;;;;;;5029550;28;20134;-26
2022/04/28 08:36:36;;;;;;;5.90;1.23;;;11.80;1.00;;;;;;5016570;28;20050;-26
2022/04/28 08:39:01;;;;;;;6.40;1.30;;;11.70;1.00;;;;;;5021607;28;20523;-26
2022/04/28 08:41:35;;;;;;;7.13;1.35;;;11.70;1.00;;;;;;5028812;28;20436;-26
2022/04/28 08:44:03;;;;;;;9.13;1.90;;;12.00;1.00;;;;;;5032889;28;20111;-26
2022/04/28 08:49:14;;;;;;;6.85;1.63;;;12.10;1.00;;;;;;5030900;28;20061;-27
2022/04/28 08:51:42;;;;;;;7.72;1.83;;;12.00;1.00;;;;;;5018740;28;20048;-27
2022/04/28 08:54:13;;;;;;;11.98;2.15;;;12.10;1.00;;;;;;5024620;28;20046;-28
2022/04/28 08:56:39;;;;;;;10.35;1.70;;;12.20;99.90;;;;;;5014245;28;20505;-27
2022/04/28 08:59:06;;;;;;;8.38;1.80;;;12.30;99.90;;;;;;5021932;28;20484;-26
2022/04/28 09:01:33;;;;;;;8.15;2.22;;;12.50;99.90;;;;;;5029315;28;20079;-27
2022/04/28 09:04:01;;;;;;;10.35;1.90;;;12.40;99.90;;;;;;5019045;28;20052;-27
2022/04/28 09:06:29;;;;;;;8.10;1.90;;;12.40;99.90;;;;;;5027934;28;20046;-27
2022/04/28 09:08:57;;;;;;;10.70;1.98;;;12.30;99.90;;;;;;5033391;28;20083;-26
2022/04/28 09:11:27;;;;;;;11.50;2.22;;;12.30;99.90;;;;;;5031328;28;20124;-30
2022/04/28 09:14:10;;;;;;;11.43;2.65;;;12.60;99.90;;;;;;5004426;28;20551;-26
2022/04/28 09:16:37;;;;;;;5.95;1.65;;;12.40;99.90;;;;;;5013144;28;20397;-26
2022/04/28 09:19:03;;;;;;;7.47;2.25;;;12.20;99.90;;;;;;5021115;28;20453;-26
2022/04/28 09:21:35;;;;;;;12.20;2.95;;;12.20;99.90;;;;;;5019478;28;20037;-26
2022/04/28 09:24:02;;;;;;;6.60;2.17;;;12.40;99.90;;;;;;5020255;28;20049;-27
2022/04/28 09:26:29;;;;;;;10.88;2.33;;;12.50;99.90;;;;;;5011917;28;20049;-26
2022/04/28 09:28:55;;;;;;;8.27;2.13;;;12.50;99.90;;;;;;5030950;28;20059;-26
2022/04/28 09:31:23;;;;;;;10.05;2.25;;;12.40;99.90;;;;;;5024667;28;20041;-26
2022/04/28 09:33:50;;;;;;;10.65;2.88;;;12.20;99.90;;;;;;5021233;28;20099;-26
2022/04/28 09:36:16;;;;;;;14.23;2.38;;;12.10;99.90;;;;;;5026269;28;20072;-26
2022/04/28 09:38:42;;;;;;;8.48;2.80;;;11.90;99.90;;;;;;5027366;28;20037;-26
2022/04/28 09:43:55;;;;;;;11.60;2.60;;;11.80;1.00;;;;;;5022985;28;20079;-27
2022/04/28 09:46:25;;;;;;;12.85;2.78;;;11.80;1.00;;;;;;5025463;28;20053;-26
2022/04/28 09:48:54;;;;;;;5.63;2.25;;;11.80;1.00;;;;;;5024416;28;20059;-27
2022/04/28 09:51:23;;;;;;;11.68;2.65;;;12.00;1.00;;;;;;5015235;28;20046;-26
2022/04/28 09:53:53;;;;;;;8.60;2.70;;;12.20;99.90;;;;;;5025060;28;20053;-27
2022/04/28 09:56:24;;;;;;;9.15;2.40;;;12.50;99.90;;;;;;5017277;28;20046;-27
2022/04/28 09:58:51;;;;;;;10.65;2.83;;;12.60;99.90;;;;;;5019309;28;20473;-27
2022/04/28 10:01:18;;;;;;;11.50;2.50;;;12.90;99.90;;;;;;5015102;28;20081;-27
2022/04/28 10:03:44;;;;;;;9.45;2.50;;;13.10;99.90;;;;;;5030369;28;20061;-27
2022/04/28 10:06:11;;;;;;;11.15;2.60;;;13.10;99.90;;;;;;5032039;28;20388;-27
2022/04/28 10:08:38;;;;;;;10.13;2.40;;;13.10;99.90;;;;;;5033011;28;20057;-26
2022/04/28 10:11:10;;;;;;;10.52;2.63;;;13.00;99.90;;;;;;5031009;28;20048;-27
2022/04/28 10:13:36;;;;;;;6.50;2.20;;;13.20;99.90;;;;;;5018879;28;20052;-27
2022/04/28 10:16:10;;;;;;;10.93;2.67;;;13.10;99.90;;;;;;5015768;28;20052;-27
2022/04/28 10:18:45;;;;;;;10.48;2.40;;;12.90;99.90;;;;;;5017383;28;20180;-27
2022/04/28 10:21:15;;;;;;;10.82;2.20;;;13.10;99.90;;;;;;5026286;28;20125;-27
2022/04/28 10:32:23;;;;;;;7.65;2.40;;;13.20;99.90;;;;;;5019016;28;20037;-26
2022/04/28 10:35:02;;;;;;;10.38;1.77;;;13.40;99.90;;;;;;5020988;28;20053;-27
2022/04/28 10:37:36;;;;;;;11.50;2.47;;;13.40;99.90;;;;;;5027016;28;20050;-26
2022/04/28 10:40:03;;;;;;;11.02;1.85;;;13.60;99.90;;;;;;5025277;28;20049;-27
2022/04/28 10:42:30;;;;;;;13.95;2.42;;;13.50;99.90;;;;;;5025714;28;20046;-26
2022/04/28 10:44:57;;;;;;;6.82;2.03;;;13.70;99.90;;;;;;5020932;28;20058;-26
2022/04/28 10:47:41;;;;;;;10.98;2.65;;;13.60;99.90;;;;;;5026445;28;20045;-27
2022/04/28 10:50:22;;;;;;;10.63;2.30;;;13.40;99.90;;;;;;5029366;28;20060;-27
2022/04/28 10:53:01;;;;;;;12.00;2.38;;;13.20;99.90;;;;;;5022856;28;20042;-26
2022/04/28 10:55:44;;;;;;;9.52;2.10;;;13.00;99.90;;;;;;5022571;28;20059;-28
2022/04/28 10:58:24;;;;;;;7.65;1.95;;;13.10;99.90;;;;;;5026279;28;20045;-27
2022/04/28 11:00:58;;;;;;;11.07;2.40;;;12.80;99.90;;;;;;5017638;28;20050;-27
2022/04/28 11:03:49;;;;;;;10.30;2.83;;;12.80;99.90;;;;;;5016743;28;20058;-26
2022/04/28 11:06:18;;;;;;;10.68;1.85;;;12.60;99.90;;;;;;5018194;28;20053;-27
2022/04/28 11:08:46;;;;;;;11.25;1.80;;;12.80;99.90;;;;;;5018981;28;20058;-27
2022/04/28 11:11:13;;;;;;;11.63;1.65;;;12.90;99.90;;;;;;5014665;28;20042;-27
2022/04/28 11:13:43;;;;;;;10.65;2.08;;;12.90;99.90;;;;;;5019663;28;20049;-28
2022/04/28 11:16:12;;;;;;;8.07;2.45;;;13.00;99.90;;;;;;5018786;28;20072;-26
2022/04/28 11:18:38;;;;;;;13.52;3.17;;;12.90;99.90;;;;;;5014597;28;20081;-27
2022/04/28 11:21:05;;;;;;;11.50;1.85;;;12.50;99.90;;;;;;5022159;28;20069;-26
2022/04/28 11:23:41;;;;;;;15.65;2.45;;;12.40;99.90;;;;;;5035220;28;20388;-26
2022/04/28 11:26:09;;;;;;;13.85;2.25;;;12.30;99.90;;;;;;5020725;28;20081;-26
2022/04/28 11:28:35;;;;;;;12.05;2.40;;;12.30;99.90;;;;;;5030226;28;20045;-26
2022/04/28 11:31:05;;;;;;;12.82;2.67;;;12.20;1.00;;;;;;5031387;28;20041;-26
2022/04/28 11:33:30;;;;;;;12.23;2.72;;;12.20;1.00;;;;;;5031271;28;20045;-27
2022/04/28 11:35:56;;;;;;;11.77;2.10;;;12.20;1.00;;;;;;5033343;28;20059;-26
2022/04/28 11:38:26;;;;;;;11.63;2.53;;;12.20;1.00;;;;;;5035278;28;20064;-26
2022/04/28 11:41:00;;;;;;;10.52;1.92;;;12.50;99.90;;;;;;5030122;28;20106;-27
2022/04/28 11:43:31;;;;;;;7.88;1.90;;;12.60;99.90;;;;;;5034101;28;20045;-26
2022/04/28 11:45:59;;;;;;;9.52;1.90;;;12.70;99.90;;;;;;5018196;28;20046;-27
2022/04/28 11:48:30;;;;;;;10.02;2.40;;;12.80;99.90;;;;;;5025141;28;20072;-27
2022/04/28 11:51:03;;;;;;;12.43;2.35;;;13.00;99.90;;;;;;5023439;28;20080;-28
2022/04/28 11:53:45;;;;;;;9.27;2.25;;;13.00;99.90;;;;;;5019574;28;20161;-27
2022/04/28 11:56:23;;;;;;;12.35;2.00;;;12.70;99.90;;;;;;5017400;28;20053;-27
2022/04/28 11:58:52;;;;;;;12.13;2.60;;;12.50;99.90;;;;;;5014459;28;20042;-26
2022/04/28 12:01:20;;;;;;;11.70;2.50;;;12.50;99.90;;;;;;5019493;28;20049;-27
2022/04/28 12:03:58;;;;;;;8.73;1.85;;;12.40;99.90;;;;;;5025253;28;20054;-27
2022/04/28 12:06:24;;;;;;;11.95;2.40;;;12.60;99.90;;;;;;5015415;28;20050;-26
2022/04/28 12:08:58;;;;;;;12.32;2.05;;;12.60;99.90;;;;;;5020316;28;20394;-27
2022/04/28 12:14:25;;;;;;;8.25;2.22;;;12.60;99.90;;;;;;5027467;28;20493;-27
2022/04/28 12:19:50;;;;;;;6.38;1.48;;;12.80;99.90;;;;;;5023171;28;20052;-27
2022/04/28 12:22:40;;;;;;;14.88;2.00;;;12.70;99.90;;;;;;5021659;28;20124;-28
2022/04/28 12:25:16;;;;;;;9.30;1.90;;;12.70;99.90;;;;;;5028392;28;20420;-27
2022/04/28 12:27:47;;;;;;;8.48;2.13;;;12.90;99.90;;;;;;5026936;28;20519;-27
2022/04/28 12:30:16;;;;;;;9.95;2.08;;;13.10;99.90;;;;;;5023038;28;20041;-26
2022/04/28 12:32:46;;;;;;;8.10;1.83;;;12.90;99.90;;;;;;5019455;28;20668;-27
2022/04/28 12:35:20;;;;;;;11.85;2.45;;;13.20;99.90;;;;;;5022114;28;20405;-26
2022/04/28 12:37:46;;;;;;;11.60;2.28;;;12.80;99.90;;;;;;5031056;28;20045;-27
2022/04/28 12:40:20;;;;;;;11.07;1.83;;;12.90;99.90;;;;;;5032693;28;20424;-26
2022/04/28 12:42:48;;;;;;;10.38;2.00;;;12.50;99.90;;;;;;5031900;28;20049;-27
2022/04/28 12:45:14;;;;;;;7.18;1.83;;;12.60;99.90;;;;;;5027095;28;20563;-27
2022/04/28 12:47:42;;;;;;;8.18;1.75;;;12.60;99.90;;;;;;5025217;28;20088;-27
2022/04/28 12:50:24;;;;;;;9.90;2.08;;;12.60;99.90;;;;;;5020889;28;20060;-26
2022/04/28 12:52:51;;;;;;;12.05;1.80;;;13.20;99.90;;;;;;5022419;28;20077;-27
2022/04/28 12:55:22;;;;;;;7.35;1.98;;;14.00;99.90;;;;;;5033593;28;20056;-27
2022/04/28 12:57:49;;;;;;;9.13;2.28;;;14.00;99.90;;;;;;5033638;28;20052;-27
2022/04/28 13:00:18;;;;;;;11.93;2.30;;;13.60;99.90;;;;;;5017303;28;20057;-27
2022/04/28 13:02:47;;;;;;;9.77;1.77;;;13.60;99.90;;;;;;5026952;28;20485;-27
2022/04/28 13:05:15;;;;;;;12.60;1.98;;;13.70;99.90;;;;;;5015498;28;20038;-27
2022/04/28 13:07:42;;;;;;;10.30;1.67;;;14.10;99.90;;;;;;5026880;28;20049;-27
2022/04/28 13:10:10;;;;;;;9.02;1.70;;;14.00;99.90;;;;;;5013551;28;20049;-27
2022/04/28 13:12:36;;;;;;;7.93;1.40;;;13.70;99.90;;;;;;4996164;28;20045;-27
2022/04/28 13:15:04;;;;;;;12.25;1.60;;;13.30;99.90;;;;;;5014018;28;20502;-27
2022/04/28 13:17:30;;;;;;;11.80;1.65;;;13.40;99.90;;;;;;5017005;28;20044;-27
2022/04/28 13:19:56;;;;;;;7.43;1.20;;;13.20;99.90;;;;;;5019400;28;20089;-27
2022/04/28 13:22:22;;;;;;;9.75;1.30;;;13.20;99.90;;;;;;5013372;28;20077;-27
2022/04/28 13:24:48;;;;;;;8.38;1.73;;;13.80;99.90;;;;;;5012723;28;20054;-27
2022/04/28 13:27:13;;;;;;;6.53;0.90;;;14.20;99.90;;;;;;5026499;28;20056;-27